createdAt,value
2019-04-10T00:01:06.326Z,100527.39
2019-04-10T00:03:37.333Z,100527.34
2019-04-10T00:06:04.598Z,100527.75
2019-04-10T00:08:33.182Z,100525.55
2019-04-10T00:11:02.661Z,100534.47
2019-04-10T00:13:31.370Z,100534.90
2019-04-10T00:15:59.793Z,100535.25
2019-04-10T00:18:28.268Z,100535.61
2019-04-10T00:20:56.846Z,100530.55
2019-04-10T00:23:25.268Z,100535.27
2019-04-10T00:25:53.751Z,100533.91
2019-04-10T00:28:23.302Z,100538.13
2019-04-10T00:30:51.912Z,100539.80
2019-04-10T00:33:20.763Z,100540.23
2019-04-10T00:35:49.882Z,100533.72
2019-04-10T00:38:19.546Z,100540.95
2019-04-10T00:40:48.242Z,100536.23
2019-04-10T00:43:17.052Z,100539.19
2019-04-10T00:45:45.988Z,100542.19
2019-04-10T00:48:15.193Z,100539.56
2019-04-10T00:50:44.584Z,100541.75
2019-04-10T00:53:13.128Z,100543.45
2019-04-10T00:55:41.525Z,100544.24
2019-04-10T00:58:10.058Z,100548.08
2019-04-10T01:00:39.207Z,100549.70
2019-04-10T01:03:07.831Z,100542.95
2019-04-10T01:05:36.244Z,100538.64
2019-04-10T01:08:04.794Z,100535.95
2019-04-10T01:10:33.275Z,100535.11
2019-04-10T01:13:02.716Z,100537.70
2019-04-10T01:15:31.238Z,100533.83
2019-04-10T01:17:59.652Z,100532.12
2019-04-10T01:20:28.042Z,100533.80
2019-04-10T01:22:57.362Z,100529.06
2019-04-10T01:25:26.214Z,100531.58
2019-04-10T01:27:54.664Z,100533.68
2019-04-10T01:30:23.072Z,100538.73
2019-04-10T01:32:52.316Z,100536.92
2019-04-10T01:35:20.757Z,100532.66
2019-04-10T01:37:54.614Z,100534.44
2019-04-10T01:40:20.739Z,100531.27
2019-04-10T01:43:02.778Z,100532.11
2019-04-10T01:45:19.663Z,100529.12
2019-04-10T01:47:48.067Z,100530.85
2019-04-10T01:50:16.478Z,100532.93
2019-04-10T01:52:45.005Z,100524.28
2019-04-10T01:55:20.047Z,100527.73
2019-04-10T01:57:44.214Z,100531.55
2019-04-10T02:00:15.247Z,100531.09
2019-04-10T02:02:45.488Z,100531.85
2019-04-10T02:05:14.498Z,100525.89
2019-04-10T02:07:42.944Z,100530.01
2019-04-10T02:10:12.077Z,100524.87
2019-04-10T02:12:40.989Z,100527.83
2019-04-10T02:15:13.909Z,100531.47
2019-04-10T02:17:41.055Z,100526.38
2019-04-10T02:20:10.547Z,100527.96
2019-04-10T02:22:39.091Z,100533.55
2019-04-10T02:25:07.840Z,100525.97
2019-04-10T02:27:36.324Z,100525.14
2019-04-10T02:30:09.531Z,100529.83
2019-04-10T02:32:39.205Z,100535.17
2019-04-10T02:35:10.628Z,100538.13
2019-04-10T02:37:39.594Z,100536.33
2019-04-10T02:40:10.133Z,100536.75
2019-04-10T02:42:40.714Z,100531.94
2019-04-10T02:45:10.255Z,100536.22
2019-04-10T02:47:39.084Z,100535.28
2019-04-10T02:50:09.515Z,100537.33
2019-04-10T02:52:39.009Z,100540.20
2019-04-10T02:55:09.885Z,100541.86
2019-04-10T02:57:39.058Z,100538.00
2019-04-10T03:00:08.627Z,100544.64
2019-04-10T03:02:38.669Z,100540.03
2019-04-10T03:05:09.370Z,100547.61
2019-04-10T03:07:40.092Z,100544.45
2019-04-10T03:10:23.259Z,100544.89
2019-04-10T03:12:40.977Z,100547.31
2019-04-10T03:15:12.357Z,100542.86
2019-04-10T03:17:40.267Z,100538.46
2019-04-10T03:20:09.907Z,100546.99
2019-04-10T03:22:38.442Z,100547.48
2019-04-10T03:25:07.274Z,100552.17
2019-04-10T03:27:36.532Z,100544.03
2019-04-10T03:30:07.566Z,100546.91
2019-04-10T03:32:50.420Z,100549.36
2019-04-10T03:35:28.133Z,100550.13
2019-04-10T03:37:57.401Z,100555.14
2019-04-10T03:40:25.813Z,100561.02
2019-04-10T03:42:55.089Z,100552.53
2019-04-10T03:45:24.356Z,100554.56
2019-04-10T03:47:52.919Z,100559.15
2019-04-10T03:50:21.606Z,100564.16
2019-04-10T03:52:50.028Z,100565.41
2019-04-10T03:55:18.897Z,100559.30
2019-04-10T03:57:47.437Z,100557.59
2019-04-10T04:00:16.253Z,100561.20
2019-04-10T04:02:44.732Z,100564.09
2019-04-10T04:05:13.317Z,100567.34
2019-04-10T04:07:41.736Z,100564.07
2019-04-10T04:10:10.870Z,100574.64
2019-04-10T04:12:39.406Z,100569.80
2019-04-10T04:15:07.881Z,100574.52
2019-04-10T04:17:36.303Z,100563.34
2019-04-10T04:20:05.243Z,100564.94
2019-04-10T04:22:33.897Z,100566.17
2019-04-10T04:25:02.503Z,100572.16
2019-04-10T04:27:30.892Z,100575.56
2019-04-10T04:29:59.639Z,100580.24
2019-04-10T04:32:29.299Z,100577.13
2019-04-10T04:34:57.809Z,100581.70
2019-04-10T04:37:26.225Z,100579.41
2019-04-10T04:39:54.648Z,100581.51
2019-04-10T04:42:23.089Z,100587.05
2019-04-10T04:44:52.104Z,100594.13
2019-04-10T04:47:20.666Z,100591.87
2019-04-10T04:49:50.034Z,100597.50
2019-04-10T04:52:18.697Z,100594.06
2019-04-10T04:54:47.753Z,100597.68
2019-04-10T04:57:17.004Z,100599.61
2019-04-10T04:59:45.503Z,100600.47
2019-04-10T05:02:14.350Z,100603.97
2019-04-10T05:04:43.816Z,100612.36
2019-04-10T05:07:13.384Z,100611.29
2019-04-10T05:09:42.254Z,100615.97
2019-04-10T05:12:11.326Z,100622.28
2019-04-10T05:14:39.974Z,100623.31
2019-04-10T05:17:08.348Z,100624.58
2019-04-10T05:19:36.763Z,100630.08
2019-04-10T05:22:06.016Z,100636.03
2019-04-10T05:24:34.570Z,100639.28
2019-04-10T05:27:03.019Z,100643.88
2019-04-10T05:29:31.433Z,100646.47
2019-04-10T05:32:00.927Z,100645.01
2019-04-10T05:34:29.619Z,100655.96
2019-04-10T05:36:58.832Z,100649.12
2019-04-10T05:39:39.183Z,100653.80
2019-04-10T05:41:57.556Z,100652.03
2019-04-10T05:44:25.994Z,100649.08
2019-04-10T05:46:54.845Z,100651.25
2019-04-10T05:49:23.336Z,100646.91
2019-04-10T05:51:51.736Z,100655.84
2019-04-10T05:54:20.154Z,100651.09
2019-04-10T05:56:48.560Z,100659.55
2019-04-10T05:59:17.140Z,100662.16
2019-04-10T06:01:45.749Z,100663.06
2019-04-10T06:04:14.107Z,100661.34
2019-04-10T06:06:42.560Z,100665.56
2019-04-10T06:09:12.187Z,100671.92
2019-04-10T06:11:44.019Z,100659.17
2019-04-10T06:14:11.529Z,100665.53
2019-04-10T06:16:40.564Z,100676.59
2019-04-10T06:19:09.506Z,100680.90
2019-04-10T06:21:38.077Z,100673.23
2019-04-10T06:24:07.784Z,100677.05
2019-04-10T06:26:37.489Z,100675.70
2019-04-10T06:29:06.527Z,100668.23
2019-04-10T06:31:35.108Z,100675.93
2019-04-10T06:34:04.628Z,100669.50
2019-04-10T06:36:33.444Z,100666.63
2019-04-10T06:39:02.686Z,100679.41
2019-04-10T06:41:31.294Z,100679.03
2019-04-10T06:43:59.702Z,100680.20
2019-04-10T06:46:28.515Z,100679.03
2019-04-10T06:48:58.731Z,100681.58
2019-04-10T06:51:27.278Z,100689.73
2019-04-10T06:54:03.275Z,100693.25
2019-04-10T06:56:25.783Z,100706.16
2019-04-10T06:58:54.212Z,100706.23
2019-04-10T07:01:24.519Z,100703.27
2019-04-10T07:04:00.986Z,100704.39
2019-04-10T07:06:35.848Z,100701.44
2019-04-10T07:08:53.483Z,100707.35
2019-04-10T07:11:25.265Z,100707.39
2019-04-10T07:13:53.788Z,100712.36
2019-04-10T07:16:22.295Z,100711.55
2019-04-10T07:18:51.901Z,100714.98
2019-04-10T07:21:20.503Z,100713.41
2019-04-10T07:23:49.063Z,100716.70
2019-04-10T07:26:27.610Z,100709.66
2019-04-10T07:28:48.970Z,100715.80
2019-04-10T07:31:17.832Z,100724.84
2019-04-10T07:33:50.081Z,100721.52
2019-04-10T07:36:16.407Z,100726.75
2019-04-10T07:38:44.901Z,100727.61
2019-04-10T07:41:19.394Z,100725.96
2019-04-10T07:43:44.675Z,100728.69
2019-04-10T07:46:13.235Z,100733.02
2019-04-10T07:48:41.642Z,100737.36
2019-04-10T07:51:11.216Z,100738.77
2019-04-10T07:53:39.782Z,100735.92
2019-04-10T07:56:13.638Z,100736.77
2019-04-10T07:58:38.409Z,100744.90
2019-04-10T08:01:07.879Z,100737.30
2019-04-10T08:03:37.393Z,100749.27
2019-04-10T08:06:06.737Z,100747.55
2019-04-10T08:08:36.202Z,100739.59
2019-04-10T08:11:05.060Z,100749.06
2019-04-10T08:13:33.647Z,100756.39
2019-04-10T08:16:02.860Z,100752.56
2019-04-10T08:18:31.719Z,100751.27
2019-04-10T08:21:00.170Z,100755.56
2019-04-10T08:23:28.586Z,100750.22
2019-04-10T08:25:58.002Z,100758.09
2019-04-10T08:28:30.223Z,100746.59
2019-04-10T08:30:57.535Z,100757.23
2019-04-10T08:33:26.339Z,100754.69
2019-04-10T08:35:54.853Z,100749.75
2019-04-10T08:38:23.992Z,100755.87
2019-04-10T08:40:52.531Z,100756.41
2019-04-10T08:43:20.959Z,100758.99
2019-04-10T08:45:52.060Z,100758.70
2019-04-10T08:48:19.801Z,100754.52
2019-04-10T08:50:48.229Z,100764.75
2019-04-10T08:53:16.609Z,100761.05
2019-04-10T08:55:45.995Z,100757.41
2019-04-10T08:58:14.628Z,100763.84
2019-04-10T09:00:43.064Z,100766.02
2019-04-10T09:03:11.477Z,100768.63
2019-04-10T09:05:39.896Z,100769.72
2019-04-10T09:08:08.610Z,100766.42
2019-04-10T09:10:37.040Z,100766.52
2019-04-10T09:13:06.287Z,100773.89
2019-04-10T09:15:36.046Z,100772.86
2019-04-10T09:18:04.625Z,100769.59
2019-04-10T09:20:33.162Z,100762.36
2019-04-10T09:23:35.127Z,100769.66
2019-04-10T09:25:31.746Z,100761.69
2019-04-10T09:28:00.270Z,100766.13
2019-04-10T09:30:28.993Z,100756.06
2019-04-10T09:32:57.527Z,100758.28
2019-04-10T09:35:26.691Z,100762.69
2019-04-10T09:37:55.175Z,100759.84
2019-04-10T09:40:24.490Z,100766.75
2019-04-10T09:42:52.948Z,100766.85
2019-04-10T09:45:22.284Z,100767.66
2019-04-10T09:47:52.316Z,100770.23
2019-04-10T09:50:21.349Z,100764.32
2019-04-10T09:52:50.371Z,100766.09
2019-04-10T09:55:19.932Z,100762.02
2019-04-10T09:57:49.559Z,100764.50
2019-04-10T10:00:19.172Z,100762.87
2019-04-10T10:02:47.679Z,100766.31
2019-04-10T10:05:16.416Z,100764.38
2019-04-10T10:07:45.174Z,100760.61
2019-04-10T10:10:15.066Z,100755.41
2019-04-10T10:12:43.635Z,100762.28
2019-04-10T10:15:13.442Z,100754.25
2019-04-10T10:17:41.879Z,100759.11
2019-04-10T10:20:11.541Z,100749.41
2019-04-10T10:22:41.143Z,100753.88
2019-04-10T10:25:11.160Z,100749.61
2019-04-10T10:27:40.735Z,100753.86
2019-04-10T10:30:11.514Z,100750.98
2019-04-10T10:32:42.129Z,100752.64
2019-04-10T10:35:11.327Z,100754.40
2019-04-10T10:37:40.941Z,100750.62
2019-04-10T10:40:10.268Z,100743.47
2019-04-10T10:42:40.985Z,100752.80
2019-04-10T10:45:10.492Z,100747.80
2019-04-10T10:47:40.395Z,100759.33
2019-04-10T10:50:09.779Z,100750.94
2019-04-10T10:52:38.269Z,100751.36
2019-04-10T10:55:07.691Z,100752.34
2019-04-10T10:57:37.363Z,100754.03
2019-04-10T11:00:08.329Z,100752.78
2019-04-10T11:02:37.996Z,100756.36
2019-04-10T11:05:07.206Z,100756.93
2019-04-10T11:07:35.767Z,100747.02
2019-04-10T11:10:06.963Z,100750.94
2019-04-10T11:12:35.792Z,100747.20
2019-04-10T11:15:06.043Z,100748.16
2019-04-10T11:17:35.717Z,100751.77
2019-04-10T11:20:08.086Z,100753.83
2019-04-10T11:22:37.698Z,100756.95
2019-04-10T11:25:07.951Z,100745.45
2019-04-10T11:27:36.537Z,100757.91
2019-04-10T11:30:08.441Z,100757.83
2019-04-10T11:32:38.030Z,100762.94
2019-04-10T11:35:07.662Z,100755.35
2019-04-10T11:37:43.826Z,100754.84
2019-04-10T11:42:39.755Z,100762.19
2019-04-10T11:45:10.674Z,100761.05
2019-04-10T11:47:39.602Z,100761.06
2019-04-10T11:50:13.395Z,100758.91
2019-04-10T11:52:44.849Z,100764.24
2019-04-10T11:55:13.716Z,100764.14
2019-04-10T11:57:41.758Z,100764.67
2019-04-10T12:00:12.243Z,100770.42
2019-04-10T12:02:43.987Z,100767.39
2019-04-10T12:05:14.879Z,100761.41
2019-04-10T12:08:08.910Z,100770.00
2019-04-10T12:12:41.743Z,100774.02
2019-04-10T12:15:10.417Z,100771.56
2019-04-10T12:17:38.841Z,100773.33
2019-04-10T12:20:07.610Z,100777.73
2019-04-10T12:22:36.096Z,100784.20
2019-04-10T12:25:06.962Z,100768.81
2019-04-10T12:27:35.451Z,100774.19
2019-04-10T12:30:06.856Z,100779.49
2019-04-10T12:32:35.402Z,100773.14
2019-04-10T12:35:05.458Z,100777.44
2019-04-10T12:37:34.978Z,100782.16
2019-04-10T12:40:05.508Z,100767.50
2019-04-10T12:42:34.581Z,100775.52
2019-04-10T12:45:04.820Z,100768.14
2019-04-10T12:47:34.241Z,100772.81
2019-04-10T12:50:03.785Z,100777.94
2019-04-10T12:52:32.436Z,100775.09
2019-04-10T12:55:01.921Z,100778.42
2019-04-10T12:57:30.755Z,100778.86
2019-04-10T13:00:03.690Z,100780.42
2019-04-10T13:02:30.313Z,100776.91
2019-04-10T13:04:58.822Z,100778.02
2019-04-10T13:07:27.590Z,100777.37
2019-04-10T13:09:56.147Z,100775.95
2019-04-10T13:12:25.061Z,100772.11
2019-04-10T13:14:53.467Z,100770.95
2019-04-10T13:17:22.696Z,100780.83
2019-04-10T13:19:51.474Z,100778.85
2019-04-10T13:22:20.152Z,100774.80
2019-04-10T13:24:48.562Z,100778.15
2019-04-10T13:27:16.986Z,100774.30
2019-04-10T13:29:45.381Z,100774.86
2019-04-10T13:32:13.951Z,100771.23
2019-04-10T13:34:42.298Z,100772.59
2019-04-10T13:37:10.790Z,100775.65
2019-04-10T13:39:39.284Z,100773.98
2019-04-10T13:42:07.933Z,100773.27
2019-04-10T13:44:36.533Z,100769.39
2019-04-10T13:47:05.067Z,100778.56
2019-04-10T13:49:33.760Z,100776.03
2019-04-10T13:52:02.297Z,100773.93
2019-04-10T13:54:30.736Z,100770.91
2019-04-10T13:56:59.377Z,100777.38
2019-04-10T13:59:28.934Z,100769.25
2019-04-10T14:01:58.478Z,100771.18
2019-04-10T14:04:27.207Z,100774.23
2019-04-10T14:06:57.720Z,100776.09
2019-04-10T14:09:38.004Z,100775.90
2019-04-10T14:11:57.580Z,100784.28
2019-04-10T14:14:26.712Z,100774.48
2019-04-10T14:16:55.189Z,100776.48
2019-04-10T14:19:23.760Z,100772.55
2019-04-10T14:21:53.392Z,100776.39
2019-04-10T14:24:22.227Z,100778.84
2019-04-10T14:26:54.919Z,100780.86
2019-04-10T14:29:22.707Z,100780.27
2019-04-10T14:31:53.209Z,100786.48
2019-04-10T14:34:22.860Z,100786.94
2019-04-10T14:36:51.349Z,100783.78
2019-04-10T14:39:21.348Z,100789.98
2019-04-10T14:41:50.086Z,100790.58
2019-04-10T14:44:18.847Z,100797.06
2019-04-10T14:46:47.377Z,100793.34
2019-04-10T14:49:16.783Z,100797.91
2019-04-10T14:51:46.137Z,100800.94
2019-04-10T14:54:15.575Z,100809.16
2019-04-10T14:56:44.305Z,100808.38
2019-04-10T14:59:12.858Z,100810.66
2019-04-10T15:01:42.031Z,100806.78
2019-04-10T15:04:10.983Z,100808.11
2019-04-10T15:06:40.062Z,100807.66
2019-04-10T15:09:20.830Z,100818.36
2019-04-10T15:11:42.579Z,100805.14
2019-04-10T15:14:11.055Z,100810.30
2019-04-10T15:16:39.485Z,100817.63
2019-04-10T15:19:08.035Z,100818.90
2019-04-10T15:21:36.689Z,100818.84
2019-04-10T15:24:05.380Z,100822.29
2019-04-10T15:26:33.850Z,100821.03
2019-04-10T15:29:02.270Z,100824.47
2019-04-10T15:31:31.226Z,100828.73
2019-04-10T15:33:59.739Z,100826.25
2019-04-10T15:36:28.437Z,100835.27
2019-04-10T15:38:58.796Z,100830.13
2019-04-10T15:41:27.415Z,100831.02
2019-04-10T15:43:55.773Z,100837.02
2019-04-10T15:46:24.786Z,100837.89
2019-04-10T15:48:53.293Z,100835.30
2019-04-10T15:51:22.430Z,100842.16
2019-04-10T15:53:51.416Z,100842.17
2019-04-10T15:56:20.456Z,100850.34
2019-04-10T15:58:49.946Z,100848.20
2019-04-10T16:01:19.958Z,100851.22
2019-04-10T16:03:48.360Z,100845.19
2019-04-10T16:06:17.500Z,100854.19
2019-04-10T16:08:46.068Z,100850.75
2019-04-10T16:11:19.475Z,100846.02
2019-04-10T16:13:49.563Z,100856.36
2019-04-10T16:16:23.299Z,100860.22
2019-04-10T16:18:53.452Z,100850.75
2019-04-10T16:21:21.854Z,100858.50
2019-04-10T16:24:10.425Z,100862.35
2019-04-10T16:26:39.206Z,100862.80
2019-04-10T16:29:07.681Z,100864.91
2019-04-10T16:31:36.140Z,100868.38
2019-04-10T16:34:05.162Z,100873.52
2019-04-10T16:36:33.565Z,100872.23
2019-04-10T16:39:02.966Z,100878.68
2019-04-10T16:41:31.505Z,100878.26
2019-04-10T16:44:00.543Z,100879.95
2019-04-10T16:46:29.876Z,100882.09
2019-04-10T16:48:58.420Z,100887.27
2019-04-10T16:51:28.043Z,100890.24
2019-04-10T16:53:56.588Z,100897.98
2019-04-10T16:56:25.422Z,100894.53
2019-04-10T16:58:54.219Z,100887.67
2019-04-10T17:01:23.576Z,100901.42
2019-04-10T17:03:52.300Z,100901.84
2019-04-10T17:06:21.714Z,100899.66
2019-04-10T17:08:50.487Z,100896.20
2019-04-10T17:11:19.141Z,100897.02
2019-04-10T17:13:48.833Z,100903.02
2019-04-10T17:16:21.850Z,100900.44
2019-04-10T17:18:50.244Z,100902.12
2019-04-10T17:21:19.905Z,100903.81
2019-04-10T17:23:49.097Z,100906.83
2019-04-10T17:26:18.983Z,100908.41
2019-04-10T17:28:48.346Z,100911.30
2019-04-10T17:31:18.149Z,100915.58
2019-04-10T17:33:46.874Z,100919.47
2019-04-10T17:36:15.379Z,100922.48
2019-04-10T17:38:44.921Z,100925.01
2019-04-10T17:41:13.583Z,100931.78
2019-04-10T17:43:43.358Z,100932.09
2019-04-10T17:46:13.127Z,100932.48
2019-04-10T17:48:42.031Z,100942.79
2019-04-10T17:51:11.992Z,100938.39
2019-04-10T17:53:41.861Z,100945.08
2019-04-10T17:56:11.517Z,100952.72
2019-04-10T17:58:41.388Z,100948.79
2019-04-10T18:01:12.541Z,100957.83
2019-04-10T18:03:50.244Z,100959.02
2019-04-10T18:06:11.534Z,100967.94
2019-04-10T18:08:40.993Z,100970.25
2019-04-10T18:11:09.549Z,100966.75
2019-04-10T18:13:38.486Z,100972.61
2019-04-10T18:16:07.002Z,100984.97
2019-04-10T18:18:35.936Z,100982.37
2019-04-10T18:21:04.656Z,100992.56
2019-04-10T18:23:33.597Z,100992.46
2019-04-10T18:26:02.462Z,100986.88
2019-04-10T18:28:33.466Z,100989.91
2019-04-10T18:31:01.348Z,100996.23
2019-04-10T18:33:30.913Z,101001.66
2019-04-10T18:35:59.552Z,101008.84
2019-04-10T18:38:27.990Z,101014.70
2019-04-10T18:41:02.035Z,101017.14
2019-04-10T18:43:27.049Z,101017.02
2019-04-10T18:46:06.165Z,101015.80
2019-04-10T18:48:26.773Z,101018.42
2019-04-10T18:50:55.490Z,101025.65
2019-04-10T18:53:24.765Z,101030.80
2019-04-10T18:55:54.494Z,101030.66
2019-04-10T18:58:25.589Z,101029.84
2019-04-10T19:01:13.930Z,101035.36
2019-04-10T19:03:50.149Z,101035.12
2019-04-10T19:06:24.667Z,101039.72
2019-04-10T19:09:04.953Z,101039.16
2019-04-10T19:11:26.793Z,101044.13
2019-04-10T19:13:53.623Z,101047.94
2019-04-10T19:16:23.502Z,101045.72
2019-04-10T19:18:52.262Z,101046.89
2019-04-10T19:21:21.830Z,101052.19
2019-04-10T19:23:50.389Z,101054.33
2019-04-10T19:26:21.057Z,101056.00
2019-04-10T19:28:50.535Z,101054.72
2019-04-10T19:31:23.820Z,101063.20
2019-04-10T19:33:51.202Z,101064.79
2019-04-10T19:36:19.773Z,101064.31
2019-04-10T19:38:48.182Z,101068.63
2019-04-10T19:41:25.203Z,101073.63
2019-04-10T19:43:46.943Z,101071.28
2019-04-10T19:46:15.463Z,101074.05
2019-04-10T19:48:43.853Z,101075.48
2019-04-10T19:51:12.397Z,101082.17
2019-04-10T19:53:41.558Z,101085.86
2019-04-10T19:56:10.937Z,101085.83
2019-04-10T19:58:39.422Z,101087.13
2019-04-10T20:01:08.783Z,101094.77
2019-04-10T20:03:37.518Z,101092.95
2019-04-10T20:06:06.182Z,101092.89
2019-04-10T20:08:35.588Z,101099.16
2019-04-10T20:11:04.538Z,101101.66
2019-04-10T20:13:32.946Z,101108.97
2019-04-10T20:16:02.665Z,101101.52
2019-04-10T20:18:31.444Z,101105.90
2019-04-10T20:20:59.887Z,101105.80
2019-04-10T20:23:28.426Z,101104.27
2019-04-10T20:25:56.946Z,101108.91
2019-04-10T20:28:26.617Z,101111.29
2019-04-10T20:30:56.742Z,101110.43
2019-04-10T20:33:25.405Z,101116.58
2019-04-10T20:35:53.813Z,101124.59
2019-04-10T20:38:23.119Z,101121.59
2019-04-10T20:40:51.963Z,101122.24
2019-04-10T20:43:20.631Z,101122.80
2019-04-10T20:45:49.670Z,101123.83
2019-04-10T20:48:18.244Z,101123.31
2019-04-10T20:50:46.675Z,101133.00
2019-04-10T20:53:15.896Z,101133.91
2019-04-10T20:55:44.384Z,101136.08
2019-04-10T20:58:13.402Z,101139.45
2019-04-10T21:00:43.081Z,101139.70
2019-04-10T21:03:11.648Z,101142.28
2019-04-10T21:05:40.248Z,101146.41
2019-04-10T21:08:09.482Z,101152.34
2019-04-10T21:10:38.689Z,101153.45
2019-04-10T21:13:08.467Z,101155.52
2019-04-10T21:15:37.619Z,101156.83
2019-04-10T21:18:06.900Z,101160.65
2019-04-10T21:20:36.524Z,101165.15
2019-04-10T21:23:05.532Z,101160.23
2019-04-10T21:25:35.048Z,101171.83
2019-04-10T21:28:04.684Z,101168.64
2019-04-10T21:30:51.259Z,101161.77
2019-04-10T21:33:24.684Z,101168.90
2019-04-10T21:35:54.097Z,101169.23
2019-04-10T21:38:23.579Z,101168.70
2019-04-10T21:40:52.125Z,101176.77
2019-04-10T21:43:21.474Z,101186.52
2019-04-10T21:45:50.176Z,101189.45
2019-04-10T21:48:18.906Z,101192.66
2019-04-10T21:50:47.360Z,101192.20
2019-04-10T21:53:16.454Z,101198.21
2019-04-10T21:55:46.483Z,101198.38
2019-04-10T21:58:14.901Z,101207.51
2019-04-10T22:00:51.212Z,101203.85
2019-04-10T22:03:20.967Z,101202.04
2019-04-10T22:06:06.071Z,101204.88
2019-04-10T22:08:39.396Z,101200.03
2019-04-10T22:11:08.547Z,101202.13
2019-04-10T22:13:38.031Z,101209.19
2019-04-10T22:16:09.335Z,101209.23
2019-04-10T22:18:38.023Z,101208.09
2019-04-10T22:21:06.570Z,101214.74
2019-04-10T22:23:34.970Z,101211.74
2019-04-10T22:26:04.278Z,101215.52
2019-04-10T22:28:32.898Z,101215.80
2019-04-10T22:31:02.320Z,101217.69
2019-04-10T22:33:30.772Z,101217.47
2019-04-10T22:36:00.190Z,101215.83
2019-04-10T22:38:29.351Z,101218.16
2019-04-10T22:40:58.097Z,101221.53
2019-04-10T22:43:26.572Z,101218.91
2019-04-10T22:45:55.049Z,101215.72
2019-04-10T22:48:23.519Z,101220.45
2019-04-10T22:50:52.134Z,101218.31
2019-04-10T22:53:21.366Z,101215.31
2019-04-10T22:55:50.661Z,101220.27
2019-04-10T22:58:19.183Z,101215.27
2019-04-10T23:00:48.452Z,101217.91
2019-04-10T23:03:18.096Z,101223.32
2019-04-10T23:05:46.891Z,101223.87
2019-04-10T23:08:15.643Z,101226.41
2019-04-10T23:10:45.301Z,101219.36
2019-04-10T23:13:14.098Z,101226.68
2019-04-10T23:15:43.895Z,101230.63
2019-04-10T23:18:13.030Z,101229.76
2019-04-10T23:20:41.802Z,101227.54
2019-04-10T23:23:10.628Z,101229.13
2019-04-10T23:25:39.109Z,101229.17
2019-04-10T23:28:07.564Z,101229.84
2019-04-10T23:30:37.085Z,101231.98
2019-04-10T23:33:05.998Z,101233.35
2019-04-10T23:35:35.708Z,101237.33
2019-04-10T23:38:04.237Z,101235.60
2019-04-10T23:40:32.806Z,101239.06
2019-04-10T23:43:09.659Z,101236.34
2019-04-10T23:45:31.532Z,101242.76
2019-04-10T23:48:00.343Z,101243.63
2019-04-10T23:50:28.895Z,101239.83
2019-04-10T23:52:58.328Z,101244.20
2019-04-10T23:55:26.805Z,101250.67
2019-04-10T23:57:55.871Z,101249.85
